Terminal Aerodrome Forecast
Issued by NWS Cleveland, OH

Home | Current Version | Previous Version | Graphics & Text | Print | Product List | Glossary On
Versions: 1 2 3 4 5 6 7 8 9 10 11 12 13 14 15 16 17 18 19 20 21
000
FTUS41 KCLE 212048 AAA
TAFCLE
TAF AMD
KCLE 212048Z 2121/2224 03008KT P6SM SKC
     FM220200 VRB03KT P6SM FEW250
     FM220900 00000KT 6SM BR FEW250
     FM221400 VRB04KT P6SM FEW250=

USA.gov is the U.S. government's official web portal to all federal, state and local government web resources and services.